sensor_id;sensor_type;location;lat;lon;timestamp;pressure;altitude;pressure_sealevel;temperature;humidity
79544;BME280;68994;47.176;7.534;2023-06-19T00:01:28;95826.94;;;18.64;67.16
79544;BME280;68994;47.176;7.534;2023-06-19T00:03:54;95827.41;;;18.66;68.17
79544;BME280;68994;47.176;7.534;2023-06-19T00:06:21;95829.16;;;18.62;68.06
79544;BME280;68994;47.176;7.534;2023-06-19T00:08:48;95832.47;;;18.59;68.30
79544;BME280;68994;47.176;7.534;2023-06-19T00:11:15;95825.34;;;18.63;66.11
79544;BME280;68994;47.176;7.534;2023-06-19T00:13:41;95824.84;;;18.61;66.95
79544;BME280;68994;47.176;7.534;2023-06-19T00:16:08;95833.94;;;18.65;66.08
79544;BME280;68994;47.176;7.534;2023-06-19T00:18:36;95830.81;;;18.81;65.30
79544;BME280;68994;47.176;7.534;2023-06-19T00:21:05;95833.19;;;18.82;65.01
79544;BME280;68994;47.176;7.534;2023-06-19T00:23:32;95832.34;;;18.64;65.84
79544;BME280;68994;47.176;7.534;2023-06-19T00:25:59;95845.09;;;18.72;65.54
79544;BME280;68994;47.176;7.534;2023-06-19T00:28:26;95845.09;;;18.72;65.52
79544;BME280;68994;47.176;7.534;2023-06-19T00:30:53;95853.69;;;18.75;64.94
79544;BME280;68994;47.176;7.534;2023-06-19T00:33:19;95856.22;;;18.71;65.84
79544;BME280;68994;47.176;7.534;2023-06-19T00:35:49;95864.16;;;18.67;67.05
79544;BME280;68994;47.176;7.534;2023-06-19T00:38:16;95867.94;;;18.66;67.87
79544;BME280;68994;47.176;7.534;2023-06-19T00:40:43;95868.94;;;18.70;67.07
79544;BME280;68994;47.176;7.534;2023-06-19T00:43:09;95868.94;;;18.70;66.39
79544;BME280;68994;47.176;7.534;2023-06-19T00:45:36;95881.56;;;18.84;65.41
79544;BME280;68994;47.176;7.534;2023-06-19T00:48:04;95874.28;;;18.93;63.88
79544;BME280;68994;47.176;7.534;2023-06-19T00:50:31;95876.97;;;18.93;63.95
79544;BME280;68994;47.176;7.534;2023-06-19T00:52:59;95881.44;;;18.89;65.79
79544;BME280;68994;47.176;7.534;2023-06-19T00:55:28;95885.84;;;18.85;64.81
79544;BME280;68994;47.176;7.534;2023-06-19T00:57:55;95886.66;;;18.85;65.36
79544;BME280;68994;47.176;7.534;2023-06-19T01:00:22;95886.44;;;18.82;65.66
79544;BME280;68994;47.176;7.534;2023-06-19T01:02:49;95894.69;;;18.77;67.28
79544;BME280;68994;47.176;7.534;2023-06-19T01:05:16;95892.28;;;18.66;67.78
79544;BME280;68994;47.176;7.534;2023-06-19T01:07:46;95888.44;;;18.59;67.47
79544;BME280;68994;47.176;7.534;2023-06-19T01:10:19;95888.44;;;18.59;66.83
79544;BME280;68994;47.176;7.534;2023-06-19T01:12:52;95893.03;;;18.58;67.63
79544;BME280;68994;47.176;7.534;2023-06-19T01:15:22;95882.38;;;18.53;68.19
79544;BME280;68994;47.176;7.534;2023-06-19T01:17:49;95896.69;;;18.53;68.86
79544;BME280;68994;47.176;7.534;2023-06-19T01:20:16;95891.72;;;18.47;69.35
79544;BME280;68994;47.176;7.534;2023-06-19T01:22:44;95893.94;;;18.45;70.53
79544;BME280;68994;47.176;7.534;2023-06-19T01:25:11;95899.84;;;18.47;70.78
79544;BME280;68994;47.176;7.534;2023-06-19T01:27:39;95893.63;;;18.46;73.10
79544;BME280;68994;47.176;7.534;2023-06-19T01:30:08;95882.44;;;18.30;73.33
79544;BME280;68994;47.176;7.534;2023-06-19T01:32:41;95909.19;;;18.41;71.33
79544;BME280;68994;47.176;7.534;2023-06-19T01:35:11;95914.28;;;18.42;73.99
79544;BME280;68994;47.176;7.534;2023-06-19T01:37:40;95912.50;;;18.38;74.78
79544;BME280;68994;47.176;7.534;2023-06-19T01:40:11;95904.03;;;18.30;75.60
79544;BME280;68994;47.176;7.534;2023-06-19T01:42:39;95902.44;;;18.29;76.16
79544;BME280;68994;47.176;7.534;2023-06-19T01:45:08;95910.41;;;18.34;75.28
79544;BME280;68994;47.176;7.534;2023-06-19T01:47:35;95923.28;;;18.38;71.79
79544;BME280;68994;47.176;7.534;2023-06-19T01:50:02;95932.41;;;18.42;71.67
79544;BME280;68994;47.176;7.534;2023-06-19T01:52:29;95941.28;;;18.42;73.67
79544;BME280;68994;47.176;7.534;2023-06-19T01:54:56;95933.97;;;18.43;71.47
79544;BME280;68994;47.176;7.534;2023-06-19T01:57:24;95946.91;;;18.54;71.49
79544;BME280;68994;47.176;7.534;2023-06-19T01:59:51;95952.00;;;18.56;70.49
79544;BME280;68994;47.176;7.534;2023-06-19T02:02:17;95951.25;;;18.64;71.77
79544;BME280;68994;47.176;7.534;2023-06-19T02:04:44;95951.88;;;18.61;71.08
79544;BME280;68994;47.176;7.534;2023-06-19T02:07:11;95955.06;;;18.63;70.54
79544;BME280;68994;47.176;7.534;2023-06-19T02:09:38;95963.38;;;18.67;72.39
79544;BME280;68994;47.176;7.534;2023-06-19T02:12:05;95962.41;;;18.71;71.69
79544;BME280;68994;47.176;7.534;2023-06-19T02:14:33;95955.44;;;18.70;74.84
79544;BME280;68994;47.176;7.534;2023-06-19T02:17:00;95946.56;;;18.47;79.34
79544;BME280;68994;47.176;7.534;2023-06-19T02:19:26;95950.00;;;18.39;80.34
79544;BME280;68994;47.176;7.534;2023-06-19T02:21:53;95959.16;;;18.29;80.81
79544;BME280;68994;47.176;7.534;2023-06-19T02:24:20;95959.84;;;18.35;77.89
79544;BME280;68994;47.176;7.534;2023-06-19T02:26:46;95950.69;;;18.22;79.91
79544;BME280;68994;47.176;7.534;2023-06-19T02:29:13;95947.81;;;18.19;80.89
79544;BME280;68994;47.176;7.534;2023-06-19T02:31:41;95940.63;;;18.14;81.90
79544;BME280;68994;47.176;7.534;2023-06-19T02:34:08;95951.25;;;18.10;82.42
79544;BME280;68994;47.176;7.534;2023-06-19T02:36:35;95955.97;;;18.05;82.95
79544;BME280;68994;47.176;7.534;2023-06-19T02:39:04;95971.06;;;18.06;83.40
79544;BME280;68994;47.176;7.534;2023-06-19T02:41:31;95976.47;;;18.06;83.27
79544;BME280;68994;47.176;7.534;2023-06-19T02:43:57;95984.75;;;18.09;82.70
79544;BME280;68994;47.176;7.534;2023-06-19T02:46:24;95987.63;;;18.13;81.63
79544;BME280;68994;47.176;7.534;2023-06-19T02:48:52;95994.75;;;18.09;82.09
79544;BME280;68994;47.176;7.534;2023-06-19T02:51:18;96001.06;;;18.04;81.60
79544;BME280;68994;47.176;7.534;2023-06-19T02:53:45;95996.97;;;18.07;81.46
79544;BME280;68994;47.176;7.534;2023-06-19T02:56:12;96001.38;;;18.03;82.12
79544;BME280;68994;47.176;7.534;2023-06-19T02:58:39;95998.19;;;18.01;83.26
79544;BME280;68994;47.176;7.534;2023-06-19T03:01:06;95998.94;;;18.15;79.25
79544;BME280;68994;47.176;7.534;2023-06-19T03:03:34;95987.09;;;18.02;82.31
79544;BME280;68994;47.176;7.534;2023-06-19T03:06:05;95984.00;;;17.95;82.82
79544;BME280;68994;47.176;7.534;2023-06-19T03:08:33;95988.22;;;17.87;82.66
79544;BME280;68994;47.176;7.534;2023-06-19T03:10:59;95987.53;;;17.82;82.29
79544;BME280;68994;47.176;7.534;2023-06-19T03:13:26;95994.00;;;17.80;82.78
79544;BME280;68994;47.176;7.534;2023-06-19T03:15:52;95994.78;;;17.81;82.98
79544;BME280;68994;47.176;7.534;2023-06-19T03:18:19;95995.31;;;17.83;82.96
79544;BME280;68994;47.176;7.534;2023-06-19T03:20:45;96001.81;;;17.82;82.68
79544;BME280;68994;47.176;7.534;2023-06-19T03:23:13;96007.69;;;17.84;82.68
79544;BME280;68994;47.176;7.534;2023-06-19T03:25:40;96009.91;;;17.82;83.10
79544;BME280;68994;47.176;7.534;2023-06-19T03:28:08;96012.59;;;17.82;83.26
79544;BME280;68994;47.176;7.534;2023-06-19T03:30:34;96016.69;;;17.79;83.26
79544;BME280;68994;47.176;7.534;2023-06-19T03:33:01;96024.00;;;17.79;82.75
79544;BME280;68994;47.176;7.534;2023-06-19T03:35:28;96016.19;;;17.77;83.22
79544;BME280;68994;47.176;7.534;2023-06-19T03:37:55;96015.41;;;17.77;83.12
79544;BME280;68994;47.176;7.534;2023-06-19T03:40:23;96026.91;;;17.69;83.62
79544;BME280;68994;47.176;7.534;2023-06-19T03:42:49;96024.63;;;17.62;84.05
79544;BME280;68994;47.176;7.534;2023-06-19T03:45:16;96027.63;;;17.60;84.64
79544;BME280;68994;47.176;7.534;2023-06-19T03:47:42;96037.44;;;17.56;84.79
79544;BME280;68994;47.176;7.534;2023-06-19T03:50:09;96027.13;;;17.58;83.87
79544;BME280;68994;47.176;7.534;2023-06-19T03:52:36;96024.22;;;17.69;83.63
79544;BME280;68994;47.176;7.534;2023-06-19T03:55:04;96028.72;;;17.59;84.25
79544;BME280;68994;47.176;7.534;2023-06-19T03:57:32;96033.13;;;17.55;84.26
79544;BME280;68994;47.176;7.534;2023-06-19T03:59:58;96035.63;;;17.52;84.85
79544;BME280;68994;47.176;7.534;2023-06-19T04:02:25;96023.72;;;17.53;84.70
79544;BME280;68994;47.176;7.534;2023-06-19T04:04:51;96026.41;;;17.53;84.71
79544;BME280;68994;47.176;7.534;2023-06-19T04:07:18;96026.41;;;17.53;84.49
79544;BME280;68994;47.176;7.534;2023-06-19T04:09:44;96021.34;;;17.51;84.65
79544;BME280;68994;47.176;7.534;2023-06-19T04:12:11;96013.66;;;17.58;84.22
79544;BME280;68994;47.176;7.534;2023-06-19T04:14:39;96005.25;;;17.60;84.82
79544;BME280;68994;47.176;7.534;2023-06-19T04:17:08;96014.44;;;17.59;84.84
79544;BME280;68994;47.176;7.534;2023-06-19T04:19:34;96015.34;;;17.54;84.04
79544;BME280;68994;47.176;7.534;2023-06-19T04:22:01;96016.25;;;17.50;83.86
79544;BME280;68994;47.176;7.534;2023-06-19T04:24:27;96024.44;;;17.58;84.88
79544;BME280;68994;47.176;7.534;2023-06-19T04:26:54;96021.03;;;17.67;84.58
79544;BME280;68994;47.176;7.534;2023-06-19T04:29:21;96015.63;;;17.67;84.61
79544;BME280;68994;47.176;7.534;2023-06-19T04:31:49;96016.22;;;17.64;84.62
79544;BME280;68994;47.176;7.534;2023-06-19T04:34:17;96014.44;;;17.59;83.95
79544;BME280;68994;47.176;7.534;2023-06-19T04:36:46;96019.03;;;17.58;84.45
79544;BME280;68994;47.176;7.534;2023-06-19T04:39:12;96011.44;;;17.60;84.76
79544;BME280;68994;47.176;7.534;2023-06-19T04:41:43;96011.31;;;17.66;84.93
79544;BME280;68994;47.176;7.534;2023-06-19T04:44:09;96002.34;;;17.70;85.40
79544;BME280;68994;47.176;7.534;2023-06-19T04:46:37;96007.63;;;17.75;84.96
79544;BME280;68994;47.176;7.534;2023-06-19T04:49:05;96002.41;;;17.79;85.01
79544;BME280;68994;47.176;7.534;2023-06-19T04:51:32;96008.59;;;17.79;85.48
79544;BME280;68994;47.176;7.534;2023-06-19T04:53:59;95991.63;;;17.79;85.27
79544;BME280;68994;47.176;7.534;2023-06-19T04:56:25;96007.59;;;17.89;84.35
79544;BME280;68994;47.176;7.534;2023-06-19T04:58:52;96003.22;;;17.93;84.33
79544;BME280;68994;47.176;7.534;2023-06-19T05:01:21;96007.69;;;17.98;84.97
79544;BME280;68994;47.176;7.534;2023-06-19T05:03:54;96007.59;;;18.03;84.52
79544;BME280;68994;47.176;7.534;2023-06-19T05:06:22;96002.84;;;18.09;85.25
79544;BME280;68994;47.176;7.534;2023-06-19T05:08:48;95998.94;;;18.15;85.27
79544;BME280;68994;47.176;7.534;2023-06-19T05:11:15;95999.91;;;18.19;84.46
79544;BME280;68994;47.176;7.534;2023-06-19T05:13:42;96006.09;;;18.20;83.62
79544;BME280;68994;47.176;7.534;2023-06-19T05:16:08;96004.72;;;18.22;83.58
79544;BME280;68994;47.176;7.534;2023-06-19T05:18:35;96003.81;;;18.27;84.72
79544;BME280;68994;47.176;7.534;2023-06-19T05:21:01;96006.97;;;18.29;83.60
79544;BME280;68994;47.176;7.534;2023-06-19T05:23:29;96007.47;;;18.31;83.93
79544;BME280;68994;47.176;7.534;2023-06-19T05:25:56;96006.56;;;18.35;83.61
79544;BME280;68994;47.176;7.534;2023-06-19T05:28:22;96011.34;;;18.39;83.55
79544;BME280;68994;47.176;7.534;2023-06-19T05:30:49;96013.53;;;18.36;82.91
79544;BME280;68994;47.176;7.534;2023-06-19T05:33:16;96010.84;;;18.36;83.46
79544;BME280;68994;47.176;7.534;2023-06-19T05:35:43;96010.84;;;18.36;83.66
79544;BME280;68994;47.176;7.534;2023-06-19T05:38:16;96010.06;;;18.36;83.79
79544;BME280;68994;47.176;7.534;2023-06-19T05:40:44;96003.06;;;18.35;83.65
79544;BME280;68994;47.176;7.534;2023-06-19T05:43:11;96004.81;;;18.40;83.06
79544;BME280;68994;47.176;7.534;2023-06-19T05:45:37;96003.59;;;18.46;82.60
79544;BME280;68994;47.176;7.534;2023-06-19T05:48:04;96004.56;;;18.50;81.63
79544;BME280;68994;47.176;7.534;2023-06-19T05:50:31;96014.03;;;18.61;82.65
79544;BME280;68994;47.176;7.534;2023-06-19T05:52:57;96014.47;;;18.77;82.28
79544;BME280;68994;47.176;7.534;2023-06-19T05:55:24;96016.63;;;18.89;82.02
79544;BME280;68994;47.176;7.534;2023-06-19T05:57:53;96016.47;;;18.94;80.48
79544;BME280;68994;47.176;7.534;2023-06-19T06:00:20;96014.13;;;19.01;81.36
79544;BME280;68994;47.176;7.534;2023-06-19T06:02:47;96018.63;;;19.15;81.58
79544;BME280;68994;47.176;7.534;2023-06-19T06:05:16;96003.72;;;19.26;80.64
79544;BME280;68994;47.176;7.534;2023-06-19T06:07:44;96010.94;;;19.39;79.87
79544;BME280;68994;47.176;7.534;2023-06-19T06:10:11;96008.25;;;19.48;79.28
79544;BME280;68994;47.176;7.534;2023-06-19T06:12:38;96012.88;;;19.56;80.98
79544;BME280;68994;47.176;7.534;2023-06-19T06:15:06;96008.59;;;19.64;79.45
79544;BME280;68994;47.176;7.534;2023-06-19T06:17:33;96009.13;;;19.75;78.83
79544;BME280;68994;47.176;7.534;2023-06-19T06:20:00;96008.19;;;19.79;78.99
79544;BME280;68994;47.176;7.534;2023-06-19T06:22:26;96011.69;;;19.80;78.65
79544;BME280;68994;47.176;7.534;2023-06-19T06:24:53;96007.88;;;19.81;79.48
79544;BME280;68994;47.176;7.534;2023-06-19T06:27:19;96009.81;;;19.89;78.44
79544;BME280;68994;47.176;7.534;2023-06-19T06:29:46;96011.38;;;19.99;78.21
79544;BME280;68994;47.176;7.534;2023-06-19T06:32:14;96010.13;;;20.05;78.43
79544;BME280;68994;47.176;7.534;2023-06-19T06:34:40;96012.97;;;20.09;77.53
79544;BME280;68994;47.176;7.534;2023-06-19T06:37:07;96017.75;;;20.20;78.96
79544;BME280;68994;47.176;7.534;2023-06-19T06:39:34;96005.19;;;20.25;77.87
79544;BME280;68994;47.176;7.534;2023-06-19T06:42:00;96009.97;;;20.28;77.23
79544;BME280;68994;47.176;7.534;2023-06-19T06:44:27;96012.50;;;20.33;77.73
79544;BME280;68994;47.176;7.534;2023-06-19T06:46:54;96013.47;;;20.37;76.79
79544;BME280;68994;47.176;7.534;2023-06-19T06:49:22;96013.91;;;20.48;76.16
79544;BME280;68994;47.176;7.534;2023-06-19T06:51:49;96003.06;;;20.48;77.17
79544;BME280;68994;47.176;7.534;2023-06-19T06:54:15;96012.97;;;20.52;77.66
79544;BME280;68994;47.176;7.534;2023-06-19T06:56:42;96012.63;;;20.54;76.11
79544;BME280;68994;47.176;7.534;2023-06-19T06:59:13;96019.66;;;20.55;76.98
79544;BME280;68994;47.176;7.534;2023-06-19T07:01:41;96021.91;;;20.53;74.56
79544;BME280;68994;47.176;7.534;2023-06-19T07:04:07;96021.56;;;20.54;76.33
79544;BME280;68994;47.176;7.534;2023-06-19T07:06:35;96017.88;;;20.59;76.24
79544;BME280;68994;47.176;7.534;2023-06-19T07:09:02;96011.84;;;20.71;75.94
79544;BME280;68994;47.176;7.534;2023-06-19T07:11:29;96012.16;;;20.69;76.99
79544;BME280;68994;47.176;7.534;2023-06-19T07:13:55;96007.06;;;20.77;76.68
79544;BME280;68994;47.176;7.534;2023-06-19T07:16:22;96001.56;;;20.94;75.25
79544;BME280;68994;47.176;7.534;2023-06-19T07:18:48;96007.56;;;21.17;74.71
79544;BME280;68994;47.176;7.534;2023-06-19T07:21:15;95998.34;;;21.39;73.14
79544;BME280;68994;47.176;7.534;2023-06-19T07:23:45;95998.91;;;21.62;73.43
79544;BME280;68994;47.176;7.534;2023-06-19T07:26:12;96000.84;;;21.83;72.32
79544;BME280;68994;47.176;7.534;2023-06-19T07:28:39;96001.41;;;21.97;72.19
79544;BME280;68994;47.176;7.534;2023-06-19T07:31:06;96006.09;;;22.09;69.16
79544;BME280;68994;47.176;7.534;2023-06-19T07:33:33;95999.13;;;22.20;69.51
79544;BME280;68994;47.176;7.534;2023-06-19T07:36:00;96005.78;;;22.32;68.55
79544;BME280;68994;47.176;7.534;2023-06-19T07:38:27;95997.06;;;22.38;67.67
79544;BME280;68994;47.176;7.534;2023-06-19T07:40:55;95998.06;;;22.55;69.04
79544;BME280;68994;47.176;7.534;2023-06-19T07:43:22;95990.22;;;22.53;67.33
79544;BME280;68994;47.176;7.534;2023-06-19T07:45:49;95991.63;;;22.59;68.57
79544;BME280;68994;47.176;7.534;2023-06-19T07:48:16;95993.41;;;22.55;69.19
79544;BME280;68994;47.176;7.534;2023-06-19T07:50:42;95988.13;;;22.38;67.47
79544;BME280;68994;47.176;7.534;2023-06-19T07:53:09;95991.56;;;22.26;67.21
79544;BME280;68994;47.176;7.534;2023-06-19T07:55:36;95992.84;;;22.08;68.22
79544;BME280;68994;47.176;7.534;2023-06-19T07:58:04;95991.72;;;21.88;68.72
79544;BME280;68994;47.176;7.534;2023-06-19T08:00:30;95994.28;;;21.84;68.70
79544;BME280;68994;47.176;7.534;2023-06-19T08:02:57;95996.34;;;21.87;68.75
79544;BME280;68994;47.176;7.534;2023-06-19T08:05:23;95997.00;;;21.84;68.72
79544;BME280;68994;47.176;7.534;2023-06-19T08:07:50;95986.88;;;21.93;69.15
79544;BME280;68994;47.176;7.534;2023-06-19T08:10:17;95991.44;;;22.01;67.49
79544;BME280;68994;47.176;7.534;2023-06-19T08:12:44;95985.88;;;22.19;70.12
79544;BME280;68994;47.176;7.534;2023-06-19T08:15:12;95982.81;;;22.41;66.29
79544;BME280;68994;47.176;7.534;2023-06-19T08:17:39;95977.41;;;22.54;67.26
79544;BME280;68994;47.176;7.534;2023-06-19T08:20:08;95986.13;;;22.47;63.93
79544;BME280;68994;47.176;7.534;2023-06-19T08:22:35;95985.00;;;22.48;68.21
79544;BME280;68994;47.176;7.534;2023-06-19T08:25:02;95988.50;;;22.49;66.17
79544;BME280;68994;47.176;7.534;2023-06-19T08:27:29;95987.06;;;22.51;63.28
79544;BME280;68994;47.176;7.534;2023-06-19T08:29:55;95993.28;;;22.52;64.09
79544;BME280;68994;47.176;7.534;2023-06-19T08:32:23;95982.53;;;22.55;62.93
79544;BME280;68994;47.176;7.534;2023-06-19T08:34:50;95986.09;;;22.68;63.48
79544;BME280;68994;47.176;7.534;2023-06-19T08:37:17;95977.94;;;22.81;65.26
79544;BME280;68994;47.176;7.534;2023-06-19T08:39:44;95980.00;;;22.84;65.40
79544;BME280;68994;47.176;7.534;2023-06-19T08:42:11;95977.38;;;22.87;62.88
79544;BME280;68994;47.176;7.534;2023-06-19T08:44:38;95973.97;;;22.78;61.79
79544;BME280;68994;47.176;7.534;2023-06-19T08:47:05;95972.28;;;22.73;64.02
79544;BME280;68994;47.176;7.534;2023-06-19T08:49:34;95975.09;;;22.77;63.14
79544;BME280;68994;47.176;7.534;2023-06-19T08:52:01;95970.28;;;22.95;65.23
79544;BME280;68994;47.176;7.534;2023-06-19T08:54:28;95958.63;;;23.19;65.44
79544;BME280;68994;47.176;7.534;2023-06-19T08:56:55;95956.94;;;23.27;64.50
79544;BME280;68994;47.176;7.534;2023-06-19T08:59:21;95963.16;;;23.27;63.05
79544;BME280;68994;47.176;7.534;2023-06-19T09:01:49;95964.38;;;23.05;61.35
79544;BME280;68994;47.176;7.534;2023-06-19T09:04:18;95959.19;;;23.12;59.57
79544;BME280;68994;47.176;7.534;2023-06-19T09:06:49;95960.13;;;23.17;60.70
79544;BME280;68994;47.176;7.534;2023-06-19T09:09:16;95962.38;;;23.14;57.98
79544;BME280;68994;47.176;7.534;2023-06-19T09:11:43;95959.44;;;23.20;60.55
79544;BME280;68994;47.176;7.534;2023-06-19T09:14:10;95947.41;;;23.33;61.82
79544;BME280;68994;47.176;7.534;2023-06-19T09:16:38;95950.56;;;23.47;61.29
79544;BME280;68994;47.176;7.534;2023-06-19T09:19:05;95948.84;;;23.67;60.82
79544;BME280;68994;47.176;7.534;2023-06-19T09:21:31;95944.16;;;23.93;61.13
79544;BME280;68994;47.176;7.534;2023-06-19T09:24:04;95940.25;;;24.06;61.03
79544;BME280;68994;47.176;7.534;2023-06-19T09:26:31;95942.94;;;24.18;60.73
79544;BME280;68994;47.176;7.534;2023-06-19T09:28:57;95928.41;;;24.42;57.27
79544;BME280;68994;47.176;7.534;2023-06-19T09:31:31;95931.72;;;24.80;57.37
79544;BME280;68994;47.176;7.534;2023-06-19T09:33:58;95934.19;;;25.17;57.09
79544;BME280;68994;47.176;7.534;2023-06-19T09:36:25;95932.50;;;25.80;53.74
79544;BME280;68994;47.176;7.534;2023-06-19T09:38:52;95924.81;;;27.10;51.10
79544;BME280;68994;47.176;7.534;2023-06-19T09:41:23;95916.69;;;28.61;44.68
79544;BME280;68994;47.176;7.534;2023-06-19T09:43:55;95919.00;;;30.26;43.51
79544;BME280;68994;47.176;7.534;2023-06-19T09:46:26;95917.25;;;31.09;38.25
79544;BME280;68994;47.176;7.534;2023-06-19T09:48:59;95911.84;;;32.37;36.89
79544;BME280;68994;47.176;7.534;2023-06-19T09:51:30;95911.81;;;33.07;34.96
79544;BME280;68994;47.176;7.534;2023-06-19T09:53:57;95907.72;;;34.06;35.20
79544;BME280;68994;47.176;7.534;2023-06-19T09:56:27;95902.94;;;34.41;31.84
79544;BME280;68994;47.176;7.534;2023-06-19T09:58:56;95894.94;;;35.28;30.70
79544;BME280;68994;47.176;7.534;2023-06-19T10:01:25;95897.34;;;35.70;31.75
79544;BME280;68994;47.176;7.534;2023-06-19T10:04:02;95901.03;;;36.07;28.17
79544;BME280;68994;47.176;7.534;2023-06-19T10:06:29;95905.09;;;36.02;27.56
79544;BME280;68994;47.176;7.534;2023-06-19T10:09:05;95897.31;;;35.94;29.92
79544;BME280;68994;47.176;7.534;2023-06-19T10:11:45;95892.44;;;35.10;30.38
79544;BME280;68994;47.176;7.534;2023-06-19T10:14:13;95892.50;;;35.30;30.85
79544;BME280;68994;47.176;7.534;2023-06-19T10:16:42;95885.13;;;36.08;29.31
79544;BME280;68994;47.176;7.534;2023-06-19T10:19:14;95888.69;;;36.08;28.84
79544;BME280;68994;47.176;7.534;2023-06-19T10:21:45;95879.97;;;35.22;30.68
79544;BME280;68994;47.176;7.534;2023-06-19T10:24:14;95886.13;;;33.90;31.13
79544;BME280;68994;47.176;7.534;2023-06-19T10:26:55;95887.50;;;34.09;32.83
79544;BME280;68994;47.176;7.534;2023-06-19T10:29:23;95885.59;;;33.30;31.39
79544;BME280;68994;47.176;7.534;2023-06-19T10:31:51;95886.78;;;32.73;30.14
79544;BME280;68994;47.176;7.534;2023-06-19T10:34:17;95878.19;;;32.64;30.54
79544;BME280;68994;47.176;7.534;2023-06-19T10:36:44;95882.28;;;33.42;31.29
79544;BME280;68994;47.176;7.534;2023-06-19T10:39:10;95874.38;;;33.44;31.86
79544;BME280;68994;47.176;7.534;2023-06-19T10:41:39;95880.66;;;33.03;31.35
79544;BME280;68994;47.176;7.534;2023-06-19T10:44:07;95874.91;;;33.67;29.11
79544;BME280;68994;47.176;7.534;2023-06-19T10:46:38;95860.88;;;34.23;29.46
79544;BME280;68994;47.176;7.534;2023-06-19T10:49:07;95867.31;;;34.43;32.33
79544;BME280;68994;47.176;7.534;2023-06-19T10:51:37;95861.47;;;34.34;30.12
79544;BME280;68994;47.176;7.534;2023-06-19T10:54:04;95854.41;;;32.77;26.99
79544;BME280;68994;47.176;7.534;2023-06-19T10:56:31;95849.19;;;32.27;28.97
79544;BME280;68994;47.176;7.534;2023-06-19T10:58:59;95849.31;;;31.98;31.28
79544;BME280;68994;47.176;7.534;2023-06-19T11:01:37;95854.28;;;32.32;29.53
79544;BME280;68994;47.176;7.534;2023-06-19T11:04:05;95851.09;;;30.87;30.84
79544;BME280;68994;47.176;7.534;2023-06-19T11:06:32;95856.22;;;30.85;31.54
79544;BME280;68994;47.176;7.534;2023-06-19T11:08:59;95851.09;;;30.59;31.71
79544;BME280;68994;47.176;7.534;2023-06-19T11:11:35;95847.78;;;30.06;31.53
79544;BME280;68994;47.176;7.534;2023-06-19T11:14:02;95853.25;;;29.95;34.51
79544;BME280;68994;47.176;7.534;2023-06-19T11:16:28;95850.00;;;29.75;32.33
79544;BME280;68994;47.176;7.534;2023-06-19T11:18:57;95843.63;;;29.50;34.75
79544;BME280;68994;47.176;7.534;2023-06-19T11:21:29;95852.09;;;29.23;32.37
79544;BME280;68994;47.176;7.534;2023-06-19T11:23:58;95848.47;;;28.63;32.82
79544;BME280;68994;47.176;7.534;2023-06-19T11:26:25;95843.22;;;28.10;34.26
79544;BME280;68994;47.176;7.534;2023-06-19T11:28:52;95839.81;;;27.90;34.28
79544;BME280;68994;47.176;7.534;2023-06-19T11:31:24;95835.06;;;27.53;35.81
79544;BME280;68994;47.176;7.534;2023-06-19T11:33:57;95847.38;;;27.36;35.41
79544;BME280;68994;47.176;7.534;2023-06-19T11:36:24;95844.97;;;27.08;35.47
79544;BME280;68994;47.176;7.534;2023-06-19T11:38:51;95848.19;;;26.87;38.03
79544;BME280;68994;47.176;7.534;2023-06-19T11:41:25;95842.06;;;26.70;38.07
79544;BME280;68994;47.176;7.534;2023-06-19T11:43:58;95847.84;;;26.65;37.11
79544;BME280;68994;47.176;7.534;2023-06-19T11:46:29;95846.28;;;26.44;38.96
79544;BME280;68994;47.176;7.534;2023-06-19T11:49:07;95831.22;;;26.31;39.54
79544;BME280;68994;47.176;7.534;2023-06-19T11:51:35;95845.03;;;26.19;39.77
79544;BME280;68994;47.176;7.534;2023-06-19T11:54:01;95844.19;;;26.15;40.92
79544;BME280;68994;47.176;7.534;2023-06-19T11:56:28;95842.41;;;26.03;43.18
79544;BME280;68994;47.176;7.534;2023-06-19T11:58:55;95848.59;;;26.00;42.93
79544;BME280;68994;47.176;7.534;2023-06-19T12:01:22;95838.28;;;25.93;43.39
79544;BME280;68994;47.176;7.534;2023-06-19T12:03:48;95845.50;;;26.01;41.35
79544;BME280;68994;47.176;7.534;2023-06-19T12:06:17;95843.31;;;26.10;41.06
79544;BME280;68994;47.176;7.534;2023-06-19T12:08:44;95834.88;;;26.19;40.51
79544;BME280;68994;47.176;7.534;2023-06-19T12:11:10;95838.00;;;26.18;39.63
79544;BME280;68994;47.176;7.534;2023-06-19T12:13:38;95838.06;;;26.21;38.72
79544;BME280;68994;47.176;7.534;2023-06-19T12:16:05;95844.03;;;26.27;40.71
79544;BME280;68994;47.176;7.534;2023-06-19T12:18:31;95839.47;;;26.35;38.85
79544;BME280;68994;47.176;7.534;2023-06-19T12:20:58;95835.63;;;26.39;38.36
79544;BME280;68994;47.176;7.534;2023-06-19T12:23:26;95837.47;;;26.55;38.83
79544;BME280;68994;47.176;7.534;2023-06-19T12:25:53;95833.53;;;26.75;40.28
79544;BME280;68994;47.176;7.534;2023-06-19T12:28:19;95827.75;;;26.80;44.57
79544;BME280;68994;47.176;7.534;2023-06-19T12:30:47;95833.84;;;26.70;37.98
79544;BME280;68994;47.176;7.534;2023-06-19T12:33:17;95821.72;;;26.71;37.99
79544;BME280;68994;47.176;7.534;2023-06-19T12:35:44;95822.59;;;26.75;37.54
79544;BME280;68994;47.176;7.534;2023-06-19T12:38:11;95814.22;;;26.91;37.61
79544;BME280;68994;47.176;7.534;2023-06-19T12:40:39;95814.13;;;27.11;35.60
79544;BME280;68994;47.176;7.534;2023-06-19T12:43:07;95806.47;;;27.24;37.12
79544;BME280;68994;47.176;7.534;2023-06-19T12:45:34;95804.38;;;27.13;36.32
79544;BME280;68994;47.176;7.534;2023-06-19T12:48:00;95801.00;;;27.24;38.90
79544;BME280;68994;47.176;7.534;2023-06-19T12:50:27;95788.72;;;27.41;38.32
79544;BME280;68994;47.176;7.534;2023-06-19T12:52:53;95787.78;;;27.60;37.06
79544;BME280;68994;47.176;7.534;2023-06-19T12:55:20;95779.84;;;27.85;40.53
79544;BME280;68994;47.176;7.534;2023-06-19T12:57:48;95772.22;;;28.46;40.34
79544;BME280;68994;47.176;7.534;2023-06-19T13:00:15;95772.97;;;28.88;39.61
79544;BME280;68994;47.176;7.534;2023-06-19T13:02:41;95765.13;;;29.63;39.91